sensor_id;sensor_type;location;lat;lon;timestamp;P1;durP1;ratioP1;P2;durP2;ratioP2
63444;SDS011;49573;47.682;9.170;2023-05-10T00:02:43;0.63;;;0.60;;
63444;SDS011;49573;47.682;9.170;2023-05-10T00:05:29;1.48;;;1.38;;
63444;SDS011;49573;47.682;9.170;2023-05-10T00:08:16;0.90;;;0.57;;
63444;SDS011;49573;47.682;9.170;2023-05-10T00:11:03;1.25;;;0.65;;
63444;SDS011;49573;47.682;9.170;2023-05-10T00:13:49;1.40;;;0.60;;
63444;SDS011;49573;47.682;9.170;2023-05-10T00:16:35;0.50;;;0.50;;
63444;SDS011;49573;47.682;9.170;2023-05-10T00:19:21;0.75;;;0.70;;
63444;SDS011;49573;47.682;9.170;2023-05-10T00:22:07;0.47;;;0.45;;
63444;SDS011;49573;47.682;9.170;2023-05-10T00:24:54;0.77;;;0.60;;
63444;SDS011;49573;47.682;9.170;2023-05-10T00:27:40;0.73;;;0.70;;
63444;SDS011;49573;47.682;9.170;2023-05-10T00:30:26;1.85;;;0.60;;
63444;SDS011;49573;47.682;9.170;2023-05-10T00:33:12;0.50;;;0.50;;
63444;SDS011;49573;47.682;9.170;2023-05-10T00:35:58;0.95;;;0.63;;
63444;SDS011;49573;47.682;9.170;2023-05-10T00:38:45;3.50;;;0.80;;
63444;SDS011;49573;47.682;9.170;2023-05-10T00:41:32;1.38;;;0.55;;
63444;SDS011;49573;47.682;9.170;2023-05-10T00:44:18;0.77;;;0.50;;
63444;SDS011;49573;47.682;9.170;2023-05-10T00:47:04;0.88;;;0.75;;
63444;SDS011;49573;47.682;9.170;2023-05-10T00:49:51;0.82;;;0.77;;
63444;SDS011;49573;47.682;9.170;2023-05-10T00:52:37;0.85;;;0.65;;
63444;SDS011;49573;47.682;9.170;2023-05-10T00:55:23;1.90;;;0.63;;
63444;SDS011;49573;47.682;9.170;2023-05-10T00:58:11;0.55;;;0.55;;
63444;SDS011;49573;47.682;9.170;2023-05-10T01:00:58;1.33;;;0.98;;
63444;SDS011;49573;47.682;9.170;2023-05-10T01:03:44;1.38;;;0.70;;
63444;SDS011;49573;47.682;9.170;2023-05-10T01:06:32;0.70;;;0.60;;
63444;SDS011;49573;47.682;9.170;2023-05-10T01:09:18;1.00;;;0.70;;
63444;SDS011;49573;47.682;9.170;2023-05-10T01:12:04;0.60;;;0.60;;
63444;SDS011;49573;47.682;9.170;2023-05-10T01:14:53;0.55;;;0.55;;
63444;SDS011;49573;47.682;9.170;2023-05-10T01:17:40;0.52;;;0.50;;
63444;SDS011;49573;47.682;9.170;2023-05-10T01:20:29;2.88;;;0.60;;
63444;SDS011;49573;47.682;9.170;2023-05-10T01:23:30;2.65;;;0.65;;
63444;SDS011;49573;47.682;9.170;2023-05-10T01:26:37;1.08;;;0.98;;
63444;SDS011;49573;47.682;9.170;2023-05-10T01:29:47;0.90;;;0.82;;
63444;SDS011;49573;47.682;9.170;2023-05-10T01:32:53;0.77;;;0.77;;
63444;SDS011;49573;47.682;9.170;2023-05-10T01:35:45;3.85;;;0.80;;
63444;SDS011;49573;47.682;9.170;2023-05-10T01:38:38;1.42;;;0.90;;
63444;SDS011;49573;47.682;9.170;2023-05-10T01:41:33;2.10;;;1.00;;
63444;SDS011;49573;47.682;9.170;2023-05-10T01:44:28;0.75;;;0.70;;
63444;SDS011;49573;47.682;9.170;2023-05-10T01:47:23;1.58;;;1.10;;
63444;SDS011;49573;47.682;9.170;2023-05-10T01:50:17;1.42;;;0.75;;
63444;SDS011;49573;47.682;9.170;2023-05-10T01:53:06;0.75;;;0.75;;
63444;SDS011;49573;47.682;9.170;2023-05-10T01:55:55;1.13;;;0.90;;
63444;SDS011;49573;47.682;9.170;2023-05-10T01:58:43;2.20;;;0.68;;
63444;SDS011;49573;47.682;9.170;2023-05-10T02:01:32;1.35;;;0.95;;
63444;SDS011;49573;47.682;9.170;2023-05-10T02:04:20;1.70;;;0.73;;
63444;SDS011;49573;47.682;9.170;2023-05-10T02:07:10;2.05;;;0.88;;
63444;SDS011;49573;47.682;9.170;2023-05-10T02:09:56;1.00;;;0.80;;
63444;SDS011;49573;47.682;9.170;2023-05-10T02:12:44;1.65;;;1.05;;
63444;SDS011;49573;47.682;9.170;2023-05-10T02:15:34;0.80;;;0.80;;
63444;SDS011;49573;47.682;9.170;2023-05-10T02:18:21;1.60;;;0.93;;
63444;SDS011;49573;47.682;9.170;2023-05-10T02:21:09;2.72;;;1.20;;
63444;SDS011;49573;47.682;9.170;2023-05-10T02:26:44;2.10;;;0.90;;
63444;SDS011;49573;47.682;9.170;2023-05-10T02:29:32;0.90;;;0.82;;
63444;SDS011;49573;47.682;9.170;2023-05-10T02:32:19;2.28;;;1.05;;
63444;SDS011;49573;47.682;9.170;2023-05-10T02:35:08;1.95;;;1.00;;
63444;SDS011;49573;47.682;9.170;2023-05-10T02:37:56;0.93;;;0.82;;
63444;SDS011;49573;47.682;9.170;2023-05-10T02:40:45;1.75;;;0.90;;
63444;SDS011;49573;47.682;9.170;2023-05-10T02:43:33;1.38;;;0.93;;
63444;SDS011;49573;47.682;9.170;2023-05-10T02:46:20;1.80;;;1.05;;
63444;SDS011;49573;47.682;9.170;2023-05-10T02:49:06;1.50;;;1.20;;
63444;SDS011;49573;47.682;9.170;2023-05-10T02:51:55;1.42;;;1.13;;
63444;SDS011;49573;47.682;9.170;2023-05-10T02:54:45;1.40;;;1.23;;
63444;SDS011;49573;47.682;9.170;2023-05-10T02:57:38;1.80;;;1.35;;
63444;SDS011;49573;47.682;9.170;2023-05-10T03:00:28;3.28;;;1.25;;
63444;SDS011;49573;47.682;9.170;2023-05-10T03:03:14;3.67;;;1.10;;
63444;SDS011;49573;47.682;9.170;2023-05-10T03:06:00;1.52;;;1.25;;
63444;SDS011;49573;47.682;9.170;2023-05-10T03:08:46;3.13;;;1.40;;
63444;SDS011;49573;47.682;9.170;2023-05-10T03:11:37;1.67;;;1.30;;
63444;SDS011;49573;47.682;9.170;2023-05-10T03:14:38;3.08;;;1.70;;
63444;SDS011;49573;47.682;9.170;2023-05-10T03:17:40;1.52;;;1.08;;
63444;SDS011;49573;47.682;9.170;2023-05-10T03:20:34;2.70;;;1.13;;
63444;SDS011;49573;47.682;9.170;2023-05-10T03:23:26;1.42;;;1.00;;
63444;SDS011;49573;47.682;9.170;2023-05-10T03:26:17;3.58;;;1.40;;
63444;SDS011;49573;47.682;9.170;2023-05-10T03:29:06;2.22;;;1.25;;
63444;SDS011;49573;47.682;9.170;2023-05-10T03:31:54;1.67;;;1.30;;
63444;SDS011;49573;47.682;9.170;2023-05-10T03:34:41;2.33;;;1.33;;
63444;SDS011;49573;47.682;9.170;2023-05-10T03:37:28;1.60;;;1.10;;
63444;SDS011;49573;47.682;9.170;2023-05-10T03:40:14;2.50;;;1.30;;
63444;SDS011;49573;47.682;9.170;2023-05-10T03:43:01;3.80;;;1.38;;
63444;SDS011;49573;47.682;9.170;2023-05-10T03:45:47;2.72;;;1.52;;
63444;SDS011;49573;47.682;9.170;2023-05-10T03:48:35;1.80;;;1.30;;
63444;SDS011;49573;47.682;9.170;2023-05-10T03:51:21;1.73;;;1.25;;
63444;SDS011;49573;47.682;9.170;2023-05-10T03:54:07;1.42;;;1.30;;
63444;SDS011;49573;47.682;9.170;2023-05-10T03:56:53;2.55;;;1.08;;
63444;SDS011;49573;47.682;9.170;2023-05-10T03:59:39;2.43;;;1.27;;
63444;SDS011;49573;47.682;9.170;2023-05-10T04:02:25;2.13;;;1.50;;
63444;SDS011;49573;47.682;9.170;2023-05-10T04:05:13;1.42;;;1.17;;
63444;SDS011;49573;47.682;9.170;2023-05-10T04:07:59;1.92;;;1.50;;
63444;SDS011;49573;47.682;9.170;2023-05-10T04:10:45;3.25;;;1.25;;
63444;SDS011;49573;47.682;9.170;2023-05-10T04:13:31;3.60;;;1.40;;
63444;SDS011;49573;47.682;9.170;2023-05-10T04:16:17;2.53;;;1.33;;
63444;SDS011;49573;47.682;9.170;2023-05-10T04:19:03;4.15;;;1.50;;
63444;SDS011;49573;47.682;9.170;2023-05-10T04:21:51;2.37;;;1.30;;
63444;SDS011;49573;47.682;9.170;2023-05-10T04:24:37;1.92;;;1.60;;
63444;SDS011;49573;47.682;9.170;2023-05-10T04:27:23;1.70;;;1.50;;
63444;SDS011;49573;47.682;9.170;2023-05-10T04:30:09;1.95;;;1.25;;
63444;SDS011;49573;47.682;9.170;2023-05-10T04:32:56;5.20;;;1.38;;
63444;SDS011;49573;47.682;9.170;2023-05-10T04:35:41;5.68;;;1.50;;
63444;SDS011;49573;47.682;9.170;2023-05-10T04:38:29;2.50;;;1.40;;
63444;SDS011;49573;47.682;9.170;2023-05-10T04:41:15;3.25;;;1.30;;
63444;SDS011;49573;47.682;9.170;2023-05-10T04:44:01;1.42;;;1.33;;
63444;SDS011;49573;47.682;9.170;2023-05-10T04:46:48;2.05;;;1.38;;
63444;SDS011;49573;47.682;9.170;2023-05-10T04:49:34;2.05;;;1.58;;
63444;SDS011;49573;47.682;9.170;2023-05-10T04:52:20;6.00;;;1.57;;
63444;SDS011;49573;47.682;9.170;2023-05-10T04:55:07;3.50;;;1.65;;
63444;SDS011;49573;47.682;9.170;2023-05-10T04:57:55;1.92;;;1.60;;
63444;SDS011;49573;47.682;9.170;2023-05-10T05:00:42;2.33;;;1.30;;
63444;SDS011;49573;47.682;9.170;2023-05-10T05:03:29;3.70;;;1.50;;
63444;SDS011;49573;47.682;9.170;2023-05-10T05:06:15;2.50;;;1.50;;
63444;SDS011;49573;47.682;9.170;2023-05-10T05:09:01;1.98;;;1.30;;
63444;SDS011;49573;47.682;9.170;2023-05-10T05:11:49;7.10;;;1.50;;
63444;SDS011;49573;47.682;9.170;2023-05-10T05:14:35;1.20;;;1.00;;
63444;SDS011;49573;47.682;9.170;2023-05-10T05:17:21;1.92;;;1.08;;
63444;SDS011;49573;47.682;9.170;2023-05-10T05:20:07;2.13;;;1.30;;
63444;SDS011;49573;47.682;9.170;2023-05-10T05:25:40;3.83;;;1.27;;
63444;SDS011;49573;47.682;9.170;2023-05-10T05:28:28;1.75;;;1.17;;
63444;SDS011;49573;47.682;9.170;2023-05-10T05:31:18;1.92;;;1.27;;
63444;SDS011;49573;47.682;9.170;2023-05-10T05:34:04;1.80;;;1.30;;
63444;SDS011;49573;47.682;9.170;2023-05-10T05:36:50;1.55;;;1.10;;
63444;SDS011;49573;47.682;9.170;2023-05-10T05:39:36;3.65;;;1.30;;
63444;SDS011;49573;47.682;9.170;2023-05-10T05:42:22;1.63;;;1.15;;
63444;SDS011;49573;47.682;9.170;2023-05-10T05:45:10;3.23;;;1.20;;
63444;SDS011;49573;47.682;9.170;2023-05-10T05:47:58;2.63;;;1.38;;
63444;SDS011;49573;47.682;9.170;2023-05-10T05:50:44;1.77;;;1.10;;
63444;SDS011;49573;47.682;9.170;2023-05-10T05:53:31;1.70;;;1.40;;
63444;SDS011;49573;47.682;9.170;2023-05-10T05:56:17;0.90;;;0.88;;
63444;SDS011;49573;47.682;9.170;2023-05-10T05:59:09;2.80;;;1.30;;
63444;SDS011;49573;47.682;9.170;2023-05-10T06:01:56;1.70;;;1.30;;
63444;SDS011;49573;47.682;9.170;2023-05-10T06:04:42;1.83;;;1.30;;
63444;SDS011;49573;47.682;9.170;2023-05-10T06:07:28;1.92;;;1.35;;
63444;SDS011;49573;47.682;9.170;2023-05-10T06:10:14;2.15;;;1.30;;
63444;SDS011;49573;47.682;9.170;2023-05-10T06:13:01;2.60;;;1.48;;
63444;SDS011;49573;47.682;9.170;2023-05-10T06:15:47;2.33;;;1.50;;
63444;SDS011;49573;47.682;9.170;2023-05-10T06:18:34;1.63;;;1.20;;
63444;SDS011;49573;47.682;9.170;2023-05-10T06:21:20;1.83;;;1.33;;
63444;SDS011;49573;47.682;9.170;2023-05-10T06:24:06;2.10;;;1.33;;
63444;SDS011;49573;47.682;9.170;2023-05-10T06:26:52;1.53;;;1.30;;
63444;SDS011;49573;47.682;9.170;2023-05-10T06:29:38;2.33;;;1.20;;
63444;SDS011;49573;47.682;9.170;2023-05-10T06:32:24;2.53;;;1.20;;
63444;SDS011;49573;47.682;9.170;2023-05-10T06:35:12;1.42;;;1.30;;
63444;SDS011;49573;47.682;9.170;2023-05-10T06:37:58;2.13;;;1.33;;
63444;SDS011;49573;47.682;9.170;2023-05-10T06:40:44;1.90;;;1.03;;
63444;SDS011;49573;47.682;9.170;2023-05-10T06:43:30;2.20;;;1.33;;
63444;SDS011;49573;47.682;9.170;2023-05-10T06:46:16;2.47;;;1.33;;
63444;SDS011;49573;47.682;9.170;2023-05-10T06:49:03;1.85;;;1.30;;
63444;SDS011;49573;47.682;9.170;2023-05-10T06:51:51;1.17;;;1.05;;
63444;SDS011;49573;47.682;9.170;2023-05-10T06:54:37;2.08;;;1.40;;
63444;SDS011;49573;47.682;9.170;2023-05-10T06:57:23;5.78;;;1.70;;
63444;SDS011;49573;47.682;9.170;2023-05-10T07:00:10;2.55;;;1.15;;
63444;SDS011;49573;47.682;9.170;2023-05-10T07:02:56;1.23;;;1.00;;
63444;SDS011;49573;47.682;9.170;2023-05-10T07:05:42;2.97;;;1.10;;
63444;SDS011;49573;47.682;9.170;2023-05-10T07:08:30;1.27;;;1.13;;
63444;SDS011;49573;47.682;9.170;2023-05-10T07:11:16;1.50;;;1.10;;
63444;SDS011;49573;47.682;9.170;2023-05-10T07:14:02;1.35;;;1.20;;
63444;SDS011;49573;47.682;9.170;2023-05-10T07:16:48;1.30;;;1.13;;
63444;SDS011;49573;47.682;9.170;2023-05-10T07:19:34;0.77;;;0.77;;
63444;SDS011;49573;47.682;9.170;2023-05-10T07:22:21;2.20;;;1.17;;
63444;SDS011;49573;47.682;9.170;2023-05-10T07:25:09;0.93;;;0.80;;
63444;SDS011;49573;47.682;9.170;2023-05-10T07:27:55;1.60;;;1.10;;
63444;SDS011;49573;47.682;9.170;2023-05-10T07:30:41;1.27;;;0.80;;
63444;SDS011;49573;47.682;9.170;2023-05-10T07:33:27;1.58;;;0.88;;
63444;SDS011;49573;47.682;9.170;2023-05-10T07:36:14;1.53;;;0.90;;
63444;SDS011;49573;47.682;9.170;2023-05-10T07:39:00;1.60;;;0.90;;
63444;SDS011;49573;47.682;9.170;2023-05-10T07:41:47;0.98;;;0.77;;
63444;SDS011;49573;47.682;9.170;2023-05-10T07:44:33;2.92;;;0.90;;
63444;SDS011;49573;47.682;9.170;2023-05-10T07:47:19;1.17;;;0.95;;
63444;SDS011;49573;47.682;9.170;2023-05-10T07:50:06;3.45;;;0.90;;
63444;SDS011;49573;47.682;9.170;2023-05-10T07:52:53;0.95;;;0.60;;
63444;SDS011;49573;47.682;9.170;2023-05-10T07:55:39;0.50;;;0.50;;
63444;SDS011;49573;47.682;9.170;2023-05-10T07:58:26;3.40;;;1.08;;
63444;SDS011;49573;47.682;9.170;2023-05-10T08:01:12;1.35;;;1.00;;
63444;SDS011;49573;47.682;9.170;2023-05-10T08:03:58;0.80;;;0.73;;
63444;SDS011;49573;47.682;9.170;2023-05-10T08:06:45;1.20;;;0.47;;
63444;SDS011;49573;47.682;9.170;2023-05-10T08:09:31;1.48;;;0.52;;
63444;SDS011;49573;47.682;9.170;2023-05-10T08:12:17;0.68;;;0.63;;
63444;SDS011;49573;47.682;9.170;2023-05-10T08:15:05;0.98;;;0.60;;
63444;SDS011;49573;47.682;9.170;2023-05-10T08:17:52;0.40;;;0.40;;
63444;SDS011;49573;47.682;9.170;2023-05-10T08:20:38;1.50;;;0.47;;
63444;SDS011;49573;47.682;9.170;2023-05-10T08:23:24;1.48;;;0.68;;
63444;SDS011;49573;47.682;9.170;2023-05-10T08:26:10;1.65;;;0.70;;
63444;SDS011;49573;47.682;9.170;2023-05-10T08:28:56;2.73;;;0.70;;
63444;SDS011;49573;47.682;9.170;2023-05-10T08:31:44;1.85;;;0.88;;
63444;SDS011;49573;47.682;9.170;2023-05-10T08:34:30;0.60;;;0.57;;
63444;SDS011;49573;47.682;9.170;2023-05-10T08:37:16;1.60;;;1.07;;
63444;SDS011;49573;47.682;9.170;2023-05-10T08:40:02;2.47;;;1.20;;
63444;SDS011;49573;47.682;9.170;2023-05-10T08:42:51;1.65;;;1.17;;
63444;SDS011;49573;47.682;9.170;2023-05-10T08:45:43;1.38;;;1.05;;
63444;SDS011;49573;47.682;9.170;2023-05-10T08:48:34;1.67;;;1.20;;
63444;SDS011;49573;47.682;9.170;2023-05-10T08:51:22;1.77;;;0.82;;
63444;SDS011;49573;47.682;9.170;2023-05-10T08:54:11;1.83;;;1.08;;
63444;SDS011;49573;47.682;9.170;2023-05-10T08:56:58;1.33;;;1.02;;
63444;SDS011;49573;47.682;9.170;2023-05-10T08:59:44;1.85;;;1.08;;
63444;SDS011;49573;47.682;9.170;2023-05-10T09:02:31;3.70;;;1.60;;
63444;SDS011;49573;47.682;9.170;2023-05-10T09:05:18;2.38;;;1.20;;
63444;SDS011;49573;47.682;9.170;2023-05-10T09:08:05;3.25;;;1.40;;
63444;SDS011;49573;47.682;9.170;2023-05-10T09:13:38;1.40;;;1.20;;
63444;SDS011;49573;47.682;9.170;2023-05-10T09:16:24;3.03;;;1.50;;
63444;SDS011;49573;47.682;9.170;2023-05-10T09:19:10;2.17;;;1.30;;
63444;SDS011;49573;47.682;9.170;2023-05-10T09:21:57;6.05;;;1.48;;
63444;SDS011;49573;47.682;9.170;2023-05-10T09:24:45;1.55;;;1.13;;
63444;SDS011;49573;47.682;9.170;2023-05-10T09:27:31;4.38;;;1.77;;
63444;SDS011;49573;47.682;9.170;2023-05-10T09:30:18;4.37;;;1.57;;
63444;SDS011;49573;47.682;9.170;2023-05-10T09:33:09;2.63;;;1.35;;
63444;SDS011;49573;47.682;9.170;2023-05-10T09:35:55;5.22;;;1.77;;
63444;SDS011;49573;47.682;9.170;2023-05-10T09:38:54;4.85;;;1.38;;
63444;SDS011;49573;47.682;9.170;2023-05-10T09:41:40;4.40;;;2.10;;
63444;SDS011;49573;47.682;9.170;2023-05-10T09:44:28;5.70;;;1.90;;
63444;SDS011;49573;47.682;9.170;2023-05-10T09:47:16;5.90;;;1.45;;
63444;SDS011;49573;47.682;9.170;2023-05-10T09:50:03;1.98;;;1.33;;
63444;SDS011;49573;47.682;9.170;2023-05-10T09:52:51;2.47;;;1.30;;
63444;SDS011;49573;47.682;9.170;2023-05-10T09:55:40;1.67;;;1.30;;
63444;SDS011;49573;47.682;9.170;2023-05-10T09:58:29;1.88;;;1.17;;
63444;SDS011;49573;47.682;9.170;2023-05-10T10:01:16;5.17;;;2.20;;
63444;SDS011;49573;47.682;9.170;2023-05-10T10:04:02;1.75;;;1.17;;
63444;SDS011;49573;47.682;9.170;2023-05-10T10:07:00;5.30;;;1.48;;
63444;SDS011;49573;47.682;9.170;2023-05-10T10:09:47;2.25;;;1.30;;
63444;SDS011;49573;47.682;9.170;2023-05-10T10:12:34;3.50;;;1.60;;
63444;SDS011;49573;47.682;9.170;2023-05-10T10:15:21;2.45;;;1.40;;
63444;SDS011;49573;47.682;9.170;2023-05-10T10:18:07;3.42;;;1.48;;
63444;SDS011;49573;47.682;9.170;2023-05-10T10:20:58;3.35;;;1.58;;
63444;SDS011;49573;47.682;9.170;2023-05-10T10:23:45;4.45;;;1.65;;
63444;SDS011;49573;47.682;9.170;2023-05-10T10:26:32;3.03;;;1.40;;
63444;SDS011;49573;47.682;9.170;2023-05-10T10:29:23;1.75;;;1.27;;
63444;SDS011;49573;47.682;9.170;2023-05-10T10:32:12;2.72;;;1.70;;
63444;SDS011;49573;47.682;9.170;2023-05-10T10:35:07;3.20;;;1.40;;
63444;SDS011;49573;47.682;9.170;2023-05-10T10:37:54;2.22;;;1.15;;
63444;SDS011;49573;47.682;9.170;2023-05-10T10:40:40;3.47;;;1.40;;
63444;SDS011;49573;47.682;9.170;2023-05-10T10:43:27;2.55;;;1.20;;
63444;SDS011;49573;47.682;9.170;2023-05-10T10:49:08;2.17;;;1.30;;
63444;SDS011;49573;47.682;9.170;2023-05-10T10:55:02;4.07;;;1.67;;
63444;SDS011;49573;47.682;9.170;2023-05-10T10:57:51;2.80;;;1.17;;
63444;SDS011;49573;47.682;9.170;2023-05-10T11:00:40;1.88;;;1.13;;
63444;SDS011;49573;47.682;9.170;2023-05-10T11:03:27;4.25;;;1.70;;
63444;SDS011;49573;47.682;9.170;2023-05-10T11:06:17;5.10;;;1.60;;
63444;SDS011;49573;47.682;9.170;2023-05-10T11:09:14;3.22;;;1.48;;
63444;SDS011;49573;47.682;9.170;2023-05-10T11:12:07;4.90;;;1.73;;
63444;SDS011;49573;47.682;9.170;2023-05-10T11:14:56;3.58;;;1.63;;
63444;SDS011;49573;47.682;9.170;2023-05-10T11:17:42;4.95;;;1.58;;
63444;SDS011;49573;47.682;9.170;2023-05-10T11:20:33;4.38;;;1.48;;
63444;SDS011;49573;47.682;9.170;2023-05-10T11:23:28;5.50;;;1.60;;
63444;SDS011;49573;47.682;9.170;2023-05-10T11:26:15;4.63;;;1.80;;
63444;SDS011;49573;47.682;9.170;2023-05-10T11:29:01;4.93;;;1.27;;
63444;SDS011;49573;47.682;9.170;2023-05-10T11:31:50;3.65;;;1.65;;
63444;SDS011;49573;47.682;9.170;2023-05-10T11:34:36;3.75;;;1.50;;
63444;SDS011;49573;47.682;9.170;2023-05-10T11:37:23;5.10;;;1.77;;
63444;SDS011;49573;47.682;9.170;2023-05-10T11:40:10;4.60;;;1.50;;
63444;SDS011;49573;47.682;9.170;2023-05-10T11:42:57;4.90;;;1.20;;
63444;SDS011;49573;47.682;9.170;2023-05-10T11:45:43;3.53;;;1.50;;
63444;SDS011;49573;47.682;9.170;2023-05-10T11:48:30;2.67;;;1.67;;
63444;SDS011;49573;47.682;9.170;2023-05-10T11:51:19;5.72;;;2.03;;
63444;SDS011;49573;47.682;9.170;2023-05-10T11:54:08;2.55;;;1.33;;
63444;SDS011;49573;47.682;9.170;2023-05-10T11:56:55;3.40;;;1.70;;
63444;SDS011;49573;47.682;9.170;2023-05-10T11:59:41;5.50;;;1.70;;
63444;SDS011;49573;47.682;9.170;2023-05-10T12:02:28;2.28;;;1.60;;
63444;SDS011;49573;47.682;9.170;2023-05-10T12:05:15;3.58;;;1.63;;
63444;SDS011;49573;47.682;9.170;2023-05-10T12:08:11;2.28;;;1.60;;
63444;SDS011;49573;47.682;9.170;2023-05-10T12:11:05;3.22;;;1.40;;
63444;SDS011;49573;47.682;9.170;2023-05-10T12:13:53;3.85;;;1.40;;
63444;SDS011;49573;47.682;9.170;2023-05-10T12:16:40;4.45;;;1.80;;
63444;SDS011;49573;47.682;9.170;2023-05-10T12:19:29;4.03;;;1.55;;
63444;SDS011;49573;47.682;9.170;2023-05-10T12:22:22;2.53;;;1.33;;
63444;SDS011;49573;47.682;9.170;2023-05-10T12:25:09;3.03;;;1.27;;
63444;SDS011;49573;47.682;9.170;2023-05-10T12:27:57;1.40;;;1.20;;
63444;SDS011;49573;47.682;9.170;2023-05-10T12:30:46;1.73;;;1.38;;
63444;SDS011;49573;47.682;9.170;2023-05-10T12:33:35;4.05;;;1.35;;
63444;SDS011;49573;47.682;9.170;2023-05-10T12:36:24;3.80;;;1.23;;
63444;SDS011;49573;47.682;9.170;2023-05-10T12:39:10;1.92;;;0.88;;
63444;SDS011;49573;47.682;9.170;2023-05-10T12:41:56;5.15;;;1.35;;
63444;SDS011;49573;47.682;9.170;2023-05-10T12:44:44;2.37;;;1.20;;
63444;SDS011;49573;47.682;9.170;2023-05-10T12:47:30;1.17;;;0.82;;
63444;SDS011;49573;47.682;9.170;2023-05-10T12:50:16;1.45;;;1.13;;
63444;SDS011;49573;47.682;9.170;2023-05-10T12:53:03;2.90;;;1.20;;
63444;SDS011;49573;47.682;9.170;2023-05-10T12:55:49;1.77;;;0.80;;
63444;SDS011;49573;47.682;9.170;2023-05-10T12:58:35;4.50;;;1.63;;
63444;SDS011;49573;47.682;9.170;2023-05-10T13:01:22;2.63;;;1.37;;
63444;SDS011;49573;47.682;9.170;2023-05-10T13:04:08;2.85;;;1.23;;
63444;SDS011;49573;47.682;9.170;2023-05-10T13:06:54;0.90;;;0.70;;
63444;SDS011;49573;47.682;9.170;2023-05-10T13:09:43;1.75;;;1.00;;
63444;SDS011;49573;47.682;9.170;2023-05-10T13:12:30;4.57;;;1.40;;
63444;SDS011;49573;47.682;9.170;2023-05-10T13:15:16;2.50;;;1.20;;
63444;SDS011;49573;47.682;9.170;2023-05-10T13:18:03;4.07;;;1.33;;
63444;SDS011;49573;47.682;9.170;2023-05-10T13:20:49;1.95;;;1.00;;
63444;SDS011;49573;47.682;9.170;2023-05-10T13:23:35;1.98;;;1.15;;
63444;SDS011;49573;47.682;9.170;2023-05-10T13:26:22;3.13;;;1.25;;
63444;SDS011;49573;47.682;9.170;2023-05-10T13:29:08;2.67;;;1.75;;
63444;SDS011;49573;47.682;9.170;2023-05-10T13:31:54;2.03;;;1.05;;
63444;SDS011;49573;47.682;9.170;2023-05-10T13:34:41;2.03;;;0.90;;
63444;SDS011;49573;47.682;9.170;2023-05-10T13:37:36;2.15;;;1.13;;
63444;SDS011;49573;47.682;9.170;2023-05-10T13:40:23;2.75;;;1.23;;
63444;SDS011;49573;47.682;9.170;2023-05-10T13:43:09;2.17;;;1.02;;
63444;SDS011;49573;47.682;9.170;2023-05-10T13:45:55;6.07;;;1.52;;
63444;SDS011;49573;47.682;9.170;2023-05-10T13:48:41;2.63;;;1.27;;
63444;SDS011;49573;47.682;9.170;2023-05-10T13:51:27;2.30;;;0.97;;
63444;SDS011;49573;47.682;9.170;2023-05-10T13:54:15;1.85;;;1.20;;
63444;SDS011;49573;47.682;9.170;2023-05-10T13:57:02;2.05;;;1.02;;
63444;SDS011;49573;47.682;9.170;2023-05-10T13:59:49;2.53;;;1.05;;
63444;SDS011;49573;47.682;9.170;2023-05-10T14:02:35;2.42;;;0.90;;
63444;SDS011;49573;47.682;9.170;2023-05-10T14:05:22;1.40;;;1.13;;
63444;SDS011;49573;47.682;9.170;2023-05-10T14:08:08;3.85;;;1.30;;
63444;SDS011;49573;47.682;9.170;2023-05-10T14:10:56;2.03;;;1.20;;
63444;SDS011;49573;47.682;9.170;2023-05-10T14:13:42;1.00;;;0.80;;
63444;SDS011;49573;47.682;9.170;2023-05-10T14:16:28;3.58;;;1.02;;
63444;SDS011;49573;47.682;9.170;2023-05-10T14:19:14;1.73;;;1.07;;
63444;SDS011;49573;47.682;9.170;2023-05-10T14:22:00;3.00;;;1.50;;
63444;SDS011;49573;47.682;9.170;2023-05-10T14:24:47;1.23;;;0.93;;
63444;SDS011;49573;47.682;9.170;2023-05-10T14:27:34;1.50;;;1.00;;
63444;SDS011;49573;47.682;9.170;2023-05-10T14:30:20;2.33;;;1.30;;
63444;SDS011;49573;47.682;9.170;2023-05-10T14:33:06;2.40;;;1.07;;
63444;SDS011;49573;47.682;9.170;2023-05-10T14:35:53;2.35;;;1.20;;
63444;SDS011;49573;47.682;9.170;2023-05-10T14:38:41;4.97;;;1.60;;
63444;SDS011;49573;47.682;9.170;2023-05-10T14:41:27;1.53;;;0.90;;
63444;SDS011;49573;47.682;9.170;2023-05-10T14:44:16;3.65;;;1.33;;
63444;SDS011;49573;47.682;9.170;2023-05-10T14:47:02;1.92;;;1.50;;
63444;SDS011;49573;47.682;9.170;2023-05-10T14:49:49;1.77;;;1.27;;
63444;SDS011;49573;47.682;9.170;2023-05-10T14:52:35;3.97;;;1.20;;
63444;SDS011;49573;47.682;9.170;2023-05-10T14:55:21;5.40;;;1.20;;
63444;SDS011;49573;47.682;9.170;2023-05-10T14:58:08;2.70;;;1.27;;
63444;SDS011;49573;47.682;9.170;2023-05-10T15:00:55;1.87;;;0.97;;
63444;SDS011;49573;47.682;9.170;2023-05-10T15:03:42;2.00;;;1.15;;
63444;SDS011;49573;47.682;9.170;2023-05-10T15:06:30;3.30;;;1.30;;
63444;SDS011;49573;47.682;9.170;2023-05-10T15:09:17;3.35;;;1.42;;
63444;SDS011;49573;47.682;9.170;2023-05-10T15:12:03;4.07;;;1.30;;
63444;SDS011;49573;47.682;9.170;2023-05-10T15:14:49;2.00;;;0.97;;
63444;SDS011;49573;47.682;9.170;2023-05-10T15:17:36;3.80;;;1.63;;
63444;SDS011;49573;47.682;9.170;2023-05-10T15:20:22;3.40;;;1.42;;
63444;SDS011;49573;47.682;9.170;2023-05-10T15:23:08;3.17;;;1.40;;
63444;SDS011;49573;47.682;9.170;2023-05-10T15:25:54;4.97;;;1.30;;
63444;SDS011;49573;47.682;9.170;2023-05-10T15:28:40;1.57;;;1.27;;
63444;SDS011;49573;47.682;9.170;2023-05-10T15:31:27;2.37;;;1.20;;
63444;SDS011;49573;47.682;9.170;2023-05-10T15:34:14;3.93;;;1.60;;
63444;SDS011;49573;47.682;9.170;2023-05-10T15:37:01;3.30;;;1.67;;
63444;SDS011;49573;47.682;9.170;2023-05-10T15:39:47;1.67;;;1.00;;
63444;SDS011;49573;47.682;9.170;2023-05-10T15:42:33;2.27;;;1.43;;
63444;SDS011;49573;47.682;9.170;2023-05-10T15:45:19;2.47;;;1.30;;
63444;SDS011;49573;47.682;9.170;2023-05-10T15:48:05;3.63;;;1.30;;
63444;SDS011;49573;47.682;9.170;2023-05-10T15:50:53;2.67;;;1.20;;
63444;SDS011;49573;47.682;9.170;2023-05-10T15:53:39;3.03;;;1.52;;
63444;SDS011;49573;47.682;9.170;2023-05-10T15:56:25;2.80;;;1.53;;
63444;SDS011;49573;47.682;9.170;2023-05-10T15:59:11;5.13;;;1.65;;
63444;SDS011;49573;47.682;9.170;2023-05-10T16:01:57;6.00;;;1.47;;
63444;SDS011;49573;47.682;9.170;2023-05-10T16:04:44;3.17;;;1.50;;
63444;SDS011;49573;47.682;9.170;2023-05-10T16:07:31;5.43;;;1.65;;
63444;SDS011;49573;47.682;9.170;2023-05-10T16:10:17;5.03;;;1.80;;
63444;SDS011;49573;47.682;9.170;2023-05-10T16:13:03;4.27;;;1.50;;
63444;SDS011;49573;47.682;9.170;2023-05-10T16:15:50;3.42;;;1.67;;
63444;SDS011;49573;47.682;9.170;2023-05-10T16:18:36;3.93;;;1.90;;
63444;SDS011;49573;47.682;9.170;2023-05-10T16:21:22;3.85;;;2.10;;
63444;SDS011;49573;47.682;9.170;2023-05-10T16:24:10;3.58;;;1.80;;
63444;SDS011;49573;47.682;9.170;2023-05-10T16:26:56;4.00;;;1.70;;
63444;SDS011;49573;47.682;9.170;2023-05-10T16:29:42;4.50;;;1.90;;
63444;SDS011;49573;47.682;9.170;2023-05-10T16:32:28;5.10;;;2.00;;
63444;SDS011;49573;47.682;9.170;2023-05-10T16:35:14;3.40;;;1.90;;
63444;SDS011;49573;47.682;9.170;2023-05-10T16:38:00;3.35;;;1.80;;
63444;SDS011;49573;47.682;9.170;2023-05-10T16:40:48;2.93;;;1.80;;
63444;SDS011;49573;47.682;9.170;2023-05-10T16:43:34;7.15;;;1.92;;
63444;SDS011;49573;47.682;9.170;2023-05-10T16:46:21;2.33;;;1.60;;
63444;SDS011;49573;47.682;9.170;2023-05-10T16:49:07;2.90;;;1.52;;
63444;SDS011;49573;47.682;9.170;2023-05-10T16:51:53;4.43;;;1.77;;
63444;SDS011;49573;47.682;9.170;2023-05-10T16:54:39;3.50;;;1.43;;
63444;SDS011;49573;47.682;9.170;2023-05-10T16:57:26;2.50;;;1.47;;
63444;SDS011;49573;47.682;9.170;2023-05-10T17:00:13;5.65;;;1.65;;
63444;SDS011;49573;47.682;9.170;2023-05-10T17:03:00;2.28;;;1.58;;
63444;SDS011;49573;47.682;9.170;2023-05-10T17:05:46;3.25;;;1.60;;